Time;durP1;ratioP1;P1;durP2;ratioP2;P2;SDS_P1;SDS_P2;PMS_P1;PMS_P2;Temp;Humidity;BMP_temperature;BMP_pressure;BME280_temperature;BME280_humidity;BME280_pressure;Samples;Min_cycle;Max_cycle;Signal;HPM_P1;HPM_P2
2021/12/15 00:01:01;;;;;;;37.78;14.20;;;;;;;0.96;100.00;100870.07;1749089;82;21048;-78
2021/12/15 00:03:28;;;;;;;29.87;13.75;;;;;;;0.97;100.00;100875.29;1748101;82;21056;-75
2021/12/15 00:05:54;;;;;;;33.33;13.48;;;;;;;0.95;100.00;100875.69;1744338;82;21576;-77
2021/12/15 00:08:21;;;;;;;39.70;17.12;;;;;;;0.97;100.00;100881.78;1743487;82;21033;-76
2021/12/15 00:10:49;;;;;;;35.43;14.63;;;;;;;0.96;100.00;100872.23;1743812;82;21114;-74
2021/12/15 00:13:18;;;;;;;41.00;16.25;;;;;;;0.95;100.00;100875.69;1743478;82;21143;-74
2021/12/15 00:15:46;;;;;;;34.92;15.48;;;;;;;0.97;100.00;100876.59;1743460;80;21042;-76
2021/12/15 00:18:13;;;;;;;34.85;13.35;;;;;;;0.94;100.00;100868.74;1743570;82;21592;-75
2021/12/15 00:20:41;;;;;;;38.13;14.90;;;;;;;0.91;100.00;100871.30;1741463;82;21198;-75
2021/12/15 00:23:08;;;;;;;37.10;16.15;;;;;;;0.89;100.00;100870.41;1735701;82;21082;-74
2021/12/15 00:25:38;;;;;;;34.13;15.25;;;;;;;0.88;100.00;100869.11;1735727;82;21102;-76
2021/12/15 00:28:05;;;;;;;30.57;14.13;;;;;;;0.86;100.00;100867.78;1736079;82;21064;-76
2021/12/15 00:30:33;;;;;;;32.70;13.80;;;;;;;0.83;100.00;100863.86;1735950;82;21619;-74
2021/12/15 00:37:02;;;;;;;39.07;15.27;;;;;;;0.84;100.00;100872.94;1795936;79;22672;-73
2021/12/15 00:39:29;;;;;;;29.02;13.38;;;;;;;0.79;100.00;100881.52;1756055;81;21465;-76
2021/12/15 00:41:57;;;;;;;34.13;13.32;;;;;;;0.75;100.00;100879.72;1755500;81;21140;-74
2021/12/15 00:44:23;;;;;;;34.50;15.25;;;;;;;0.75;100.00;100874.53;1754123;81;21120;-74
2021/12/15 00:46:52;;;;;;;29.98;12.65;;;;;;;0.76;100.00;100879.75;1747462;82;21096;-74
2021/12/15 00:49:20;;;;;;;33.65;12.10;;;;;;;0.78;100.00;100879.75;1747352;81;21073;-76
2021/12/15 00:51:47;;;;;;;32.63;13.28;;;;;;;0.80;100.00;100887.13;1747365;82;21081;-74
2021/12/15 00:54:14;;;;;;;26.15;11.97;;;;;;;0.77;100.00;100879.31;1747739;81;21554;-76
2021/12/15 00:56:41;;;;;;;32.73;12.98;;;;;;;0.74;100.00;100871.07;1728830;82;20981;-74
2021/12/15 00:59:09;;;;;;;28.20;12.05;;;;;;;0.75;100.00;100882.30;1717480;83;21037;-74
2021/12/15 01:01:39;;;;;;;28.77;12.98;;;;;;;0.78;100.00;100874.56;1737364;82;21053;-74
2021/12/15 01:04:06;;;;;;;34.23;14.25;;;;;;;0.82;100.00;100882.84;1747382;81;21111;-75
2021/12/15 01:06:34;;;;;;;27.02;12.05;;;;;;;0.77;100.00;100876.72;1747572;82;21853;-76
2021/12/15 01:09:04;;;;;;;29.42;12.65;;;;;;;0.74;100.00;100885.33;1747432;82;21037;-74
2021/12/15 01:19:46;;;;;;;30.20;12.13;;;;;;;0.71;100.00;100877.91;1747329;82;21076;-75
2021/12/15 01:19:54;;;;;;;30.02;13.15;;;;;;;0.67;100.00;100863.16;1717575;83;21127;-74
2021/12/15 01:22:32;;;;;;;31.35;13.70;;;;;;;0.66;100.00;100865.31;1717274;83;21014;-75
2021/12/15 01:25:11;;;;;;;32.67;13.70;;;;;;;0.65;100.00;100863.16;1714316;83;21482;-73
2021/12/15 01:27:38;;;;;;;32.03;13.28;;;;;;;0.68;100.00;100862.33;1717468;83;21045;-73
2021/12/15 01:30:07;;;;;;;26.20;11.60;;;;;;;0.66;100.00;100854.95;1717581;83;21576;-73
2021/12/15 01:32:34;;;;;;;23.00;10.90;;;;;;;0.63;100.00;100851.89;1717708;83;21128;-77
2021/12/15 01:35:01;;;;;;;26.10;11.03;;;;;;;0.63;100.00;100846.70;1717532;83;21136;-73
2021/12/15 01:37:27;;;;;;;26.90;11.90;;;;;;;0.59;100.00;100845.77;1718498;83;21134;-75
2021/12/15 01:39:55;;;;;;;31.35;11.90;;;;;;;0.62;100.00;100845.84;1718583;83;21547;-76
2021/12/15 01:42:25;;;;;;;25.35;11.25;;;;;;;0.60;100.00;100844.94;1718652;83;20998;-76
2021/12/15 01:47:37;;;;;;;23.87;11.60;;;;;;;0.63;100.00;100844.97;1717982;83;21022;-74
2021/12/15 01:50:08;;;;;;;25.23;11.00;;;;;;;0.62;100.00;100845.84;1718540;83;21093;-75
2021/12/15 01:52:40;;;;;;;17.23;8.50;;;;;;;0.63;100.00;100847.56;1717932;83;21070;-73
2021/12/15 01:55:14;;;;;;;20.95;9.00;;;;;;;0.67;100.00;100842.42;1718237;83;21077;-74
2021/12/15 01:57:41;;;;;;;20.23;8.93;;;;;;;0.66;100.00;100848.47;1717603;83;21950;-74
2021/12/15 02:00:17;;;;;;;19.32;9.13;;;;;;;0.63;100.00;100847.56;1718388;83;21073;-74
2021/12/15 02:02:45;;;;;;;18.60;8.75;;;;;;;0.63;100.00;100857.94;1718285;83;21068;-74
2021/12/15 02:05:12;;;;;;;15.85;7.33;;;;;;;0.60;100.00;100860.50;1719272;83;21073;-75
2021/12/15 02:07:39;;;;;;;16.07;8.33;;;;;;;0.62;100.00;100853.62;1719132;83;21017;-74
2021/12/15 02:10:08;;;;;;;15.18;7.85;;;;;;;0.62;100.00;100861.39;1719543;83;21116;-72
2021/12/15 02:12:39;;;;;;;14.70;7.50;;;;;;;0.65;100.00;100857.11;1719462;83;21079;-74
2021/12/15 02:15:11;;;;;;;16.17;8.53;;;;;;;0.65;100.00;100857.11;1719470;82;21551;-75
2021/12/15 02:17:38;;;;;;;13.65;7.70;;;;;;;0.62;100.00;100858.80;1731916;82;20978;-76
2021/12/15 02:20:09;;;;;;;17.67;8.58;;;;;;;0.63;100.00;100859.66;1752024;82;21043;-76
2021/12/15 02:22:35;;;;;;;13.20;7.10;;;;;;;0.61;100.00;100857.04;1750571;82;21124;-74
2021/12/15 02:25:06;;;;;;;16.48;7.30;;;;;;;0.62;100.00;100861.39;1745433;82;21061;-75
2021/12/15 02:27:35;;;;;;;12.80;6.33;;;;;;;0.63;100.00;100859.23;1746686;82;21117;-77
2021/12/15 02:33:36;;;;;;;16.67;8.23;;;;;;;0.63;100.00;100854.48;1679870;85;21093;-75
2021/12/15 02:38:33;;;;;;;13.38;7.47;;;;;;;0.60;100.00;100847.53;1669278;85;21578;-76
2021/12/15 02:41:07;;;;;;;17.50;8.45;;;;;;;0.57;100.00;100846.17;1669340;85;21050;-74
2021/12/15 02:43:28;;;;;;;16.10;7.90;;;;;;;0.59;100.00;100841.88;1668279;85;21187;-75
2021/12/15 02:45:55;;;;;;;14.45;7.58;;;;;;;0.56;100.00;100843.14;1669262;85;21601;-75
2021/12/15 02:48:22;;;;;;;12.78;7.05;;;;;;;0.56;100.00;100850.92;1732065;82;21155;-76
2021/12/15 02:50:48;;;;;;;14.75;7.70;;;;;;;0.60;100.00;100847.53;1668910;86;21047;-76
2021/12/15 02:53:16;;;;;;;14.23;7.80;;;;;;;0.62;100.00;100843.25;1731866;82;21066;-76
2021/12/15 02:55:44;;;;;;;12.00;7.75;;;;;;;0.63;100.00;100852.75;1729180;82;21682;-76
2021/12/15 02:58:11;;;;;;;12.35;7.85;;;;;;;0.63;100.00;100855.34;1719262;82;21028;-74
2021/12/15 03:00:55;;;;;;;14.55;7.25;;;;;;;0.66;100.00;100856.24;1719253;83;21144;-75
2021/12/15 03:04:11;;;;;;;14.60;7.75;;;;;;;0.67;100.00;100855.38;1717758;82;21071;-75
2021/12/15 03:05:53;;;;;;;12.07;7.37;;;;;;;0.68;100.00;100853.25;1683791;85;21073;-72
2021/12/15 03:08:21;;;;;;;13.78;7.67;;;;;;;0.69;100.00;100857.17;1718832;82;21008;-76
2021/12/15 03:16:22;;;;;;;13.43;7.95;;;;;;;0.63;100.00;100867.44;1719076;82;21055;-74
2021/12/15 03:18:48;;;;;;;11.88;6.87;;;;;;;0.62;100.00;100863.98;1719298;82;21016;-75
2021/12/15 03:21:23;;;;;;;13.00;7.08;;;;;;;0.62;100.00;100865.68;1718700;82;21068;-73
2021/12/15 03:23:56;;;;;;;11.03;6.53;;;;;;;0.66;100.00;100865.31;1704314;84;21057;-75
2021/12/15 03:26:36;;;;;;;13.53;7.37;;;;;;;0.66;100.00;100868.77;1704384;83;21739;-73
2021/12/15 03:34:46;;;;;;;13.25;6.92;;;;;;;0.61;100.00;100867.41;1704192;84;21094;-74
2021/12/15 03:37:22;;;;;;;11.60;6.37;;;;;;;0.60;100.00;100868.27;1712788;83;21052;-75
2021/12/15 03:39:44;;;;;;;12.33;6.60;;;;;;;0.56;100.00;100867.77;1715717;83;21108;-74
2021/12/15 03:42:12;;;;;;;9.48;6.03;;;;;;;0.54;100.00;100869.46;1717619;83;21005;-76
2021/12/15 03:44:42;;;;;;;12.05;6.65;;;;;;;0.57;100.00;100860.86;1717657;83;21077;-75
2021/12/15 03:47:16;;;;;;;9.85;5.70;;;;;;;0.57;100.00;100856.97;1718069;83;21049;-75
2021/12/15 03:49:43;;;;;;;11.10;6.42;;;;;;;0.56;100.00;100853.95;1717796;83;21066;-76
2021/12/15 03:52:11;;;;;;;11.10;5.80;;;;;;;0.57;100.00;100860.42;1717740;83;21768;-75
2021/12/15 03:54:38;;;;;;;10.58;6.22;;;;;;;0.56;100.00;100866.47;1717560;83;21060;-74
2021/12/15 03:57:05;;;;;;;9.15;5.62;;;;;;;0.59;100.00;100869.09;1740912;82;21008;-73
2021/12/15 03:59:34;;;;;;;10.23;6.05;;;;;;;0.58;100.00;100863.91;1747387;81;21093;-74
2021/12/15 04:02:01;;;;;;;11.35;6.08;;;;;;;0.54;100.00;100866.87;1747019;81;21053;-76
2021/12/15 04:04:28;;;;;;;11.45;6.72;;;;;;;0.48;100.00;100869.35;1747326;81;21149;-77
2021/12/15 04:06:57;;;;;;;13.30;7.10;;;;;;;0.48;100.00;100877.13;1747299;81;21077;-75
2021/12/15 04:09:23;;;;;;;10.88;6.55;;;;;;;0.49;100.00;100887.09;1747404;82;21002;-74
2021/12/15 04:11:52;;;;;;;10.03;5.92;;;;;;;0.53;100.00;100887.17;1747301;82;21549;-73
2021/12/15 04:14:22;;;;;;;12.65;7.10;;;;;;;0.50;100.00;100885.80;1747422;82;21014;-74
2021/12/15 04:17:02;;;;;;;10.95;6.75;;;;;;;0.51;100.00;100895.34;1747478;81;21172;-75
2021/12/15 04:19:27;;;;;;;12.58;6.97;;;;;;;0.51;100.00;100899.23;1746904;81;21057;-74
2021/12/15 04:21:54;;;;;;;12.75;6.65;;;;;;;0.49;100.00;100890.55;1744046;82;21093;-75
2021/12/15 04:24:24;;;;;;;13.05;7.15;;;;;;;0.50;100.00;100887.09;1746029;82;21058;-75
2021/12/15 04:26:50;;;;;;;13.10;7.53;;;;;;;0.53;100.00;100887.56;1746188;82;21033;-76
2021/12/15 04:29:17;;;;;;;17.12;9.28;;;;;;;0.54;100.00;100897.11;1745854;82;21183;-78
2021/12/15 04:32:01;;;;;;;14.53;8.40;;;;;;;0.51;100.00;100894.05;1676469;85;21106;-80
2021/12/15 04:34:28;;;;;;;14.00;7.28;;;;;;;0.48;100.00;100897.86;1731937;82;21109;-76
2021/12/15 04:36:56;;;;;;;18.23;9.38;;;;;;;0.46;100.00;100898.29;1727758;82;21049;-69
2021/12/15 04:39:26;;;;;;;18.07;9.00;;;;;;;0.49;100.00;100898.76;1732566;82;21022;-73
2021/12/15 04:41:53;;;;;;;16.52;8.73;;;;;;;0.49;100.00;100908.70;1740862;82;21749;-73
2021/12/15 04:44:24;;;;;;;15.78;9.15;;;;;;;0.47;100.00;100908.22;1719281;82;21108;-73
2021/12/15 04:47:00;;;;;;;17.37;8.85;;;;;;;0.45;100.00;100913.38;1735551;82;26584;-72
2021/12/15 04:49:23;;;;;;;19.48;9.10;;;;;;;0.45;100.00;100918.55;1726137;82;21066;-70
2021/12/15 04:51:50;;;;;;;15.88;9.08;;;;;;;0.44;100.00;100912.04;1717463;83;21072;-73
2021/12/15 04:54:17;;;;;;;15.35;8.40;;;;;;;0.41;100.00;100915.45;1718528;83;21149;-71
2021/12/15 04:56:44;;;;;;;15.95;9.53;;;;;;;0.43;100.00;100914.20;1736511;82;21025;-71
2021/12/15 04:59:11;;;;;;;15.25;8.63;;;;;;;0.45;100.00;100921.14;1742063;81;21596;-72
2021/12/15 05:01:38;;;;;;;17.05;9.68;;;;;;;0.44;100.00;100912.04;1726383;82;21633;-71
2021/12/15 05:04:05;;;;;;;23.90;9.98;;;;;;;0.37;100.00;100917.57;1746475;82;21096;-73
2021/12/15 05:06:33;;;;;;;16.10;9.13;;;;;;;0.36;100.00;100916.67;1746608;81;21136;-73
2021/12/15 05:09:01;;;;;;;15.72;8.85;;;;;;;0.38;100.00;100919.30;1719369;82;21011;-70
2021/12/15 05:11:28;;;;;;;15.88;8.45;;;;;;;0.40;100.00;100922.36;1746993;82;21002;-72
2021/12/15 05:13:55;;;;;;;16.10;8.93;;;;;;;0.40;100.00;100911.13;1747175;82;21002;-72
2021/12/15 05:16:23;;;;;;;17.48;8.20;;;;;;;0.41;100.00;100918.05;1747211;81;21571;-72
2021/12/15 05:18:50;;;;;;;16.25;8.83;;;;;;;0.42;100.00;100922.40;1747263;81;21070;-72
2021/12/15 05:21:18;;;;;;;14.03;7.30;;;;;;;0.39;100.00;100922.33;1732884;82;21019;-73
2021/12/15 05:23:53;;;;;;;11.38;6.83;;;;;;;0.36;100.00;100923.58;1724292;82;21049;-72
2021/12/15 05:26:14;;;;;;;13.68;7.70;;;;;;;0.34;100.00;100929.16;1741955;82;21041;-71
2021/12/15 05:28:42;;;;;;;15.18;8.18;;;;;;;0.34;100.00;100930.02;1744316;82;21057;-71
2021/12/15 05:31:08;;;;;;;13.72;8.20;;;;;;;0.31;100.00;100926.52;1747492;82;21159;-72
2021/12/15 05:33:35;;;;;;;13.98;7.58;;;;;;;0.26;100.00;100922.55;1747033;82;21089;-72
2021/12/15 05:36:04;;;;;;;14.63;8.93;;;;;;;0.27;100.00;100920.83;1729878;82;21112;-72
2021/12/15 05:38:32;;;;;;;15.63;8.75;;;;;;;0.21;100.00;100920.31;1705383;83;21065;-71
2021/12/15 05:40:59;;;;;;;14.45;8.20;;;;;;;0.19;100.00;100929.77;1704449;84;21033;-71
2021/12/15 05:43:26;;;;;;;16.67;9.03;;;;;;;0.18;100.00;100930.20;1704467;82;21546;-69
2021/12/15 05:45:53;;;;;;;16.73;8.85;;;;;;;0.17;100.00;100937.50;1714299;82;21039;-71
2021/12/15 05:48:21;;;;;;;14.50;8.65;;;;;;;0.19;100.00;100938.41;1716738;81;21513;-72
2021/12/15 05:50:49;;;;;;;15.75;8.08;;;;;;;0.20;100.00;100942.73;1711035;82;21109;-71
2021/12/15 05:53:16;;;;;;;14.03;8.00;;;;;;;0.19;100.00;100943.59;1712162;82;21109;-71
2021/12/15 05:55:43;;;;;;;13.53;7.97;;;;;;;0.22;100.00;100952.27;1717101;82;21546;-70
2021/12/15 05:58:10;;;;;;;18.75;9.00;;;;;;;0.22;100.00;100957.45;1729672;82;21146;-71
2021/12/15 06:00:39;;;;;;;14.20;8.03;;;;;;;0.24;100.00;100957.05;1733089;82;21015;-72
2021/12/15 06:03:06;;;;;;;16.62;8.70;;;;;;;0.27;100.00;100959.26;1733629;82;21034;-72
2021/12/15 06:05:34;;;;;;;14.85;8.78;;;;;;;0.26;100.00;100961.84;1733510;82;21498;-73
2021/12/15 06:08:01;;;;;;;14.30;7.70;;;;;;;0.27;100.00;100961.85;1733609;82;21113;-72
2021/12/15 06:10:29;;;;;;;13.62;7.60;;;;;;;0.26;100.00;100964.44;1733131;82;21613;-70
2021/12/15 06:12:57;;;;;;;13.13;7.92;;;;;;;0.24;100.00;100965.70;1710735;82;21090;-72
2021/12/15 06:15:26;;;;;;;15.13;7.65;;;;;;;0.27;100.00;100967.47;1721052;82;21604;-72
2021/12/15 06:17:59;;;;;;;11.65;6.92;;;;;;;0.26;100.00;100974.80;1714660;82;21911;-71
2021/12/15 06:20:28;;;;;;;11.50;6.35;;;;;;;0.27;100.00;100964.88;1708106;82;21177;-69
2021/12/15 06:22:59;;;;;;;11.28;6.90;;;;;;;0.26;100.00;100967.03;1712837;82;21046;-72
2021/12/15 06:25:25;;;;;;;11.00;6.55;;;;;;;0.20;100.00;100970.36;1709390;82;21088;-71
2021/12/15 06:27:51;;;;;;;12.00;6.20;;;;;;;0.16;100.00;100970.74;1706673;82;21034;-71
2021/12/15 06:30:18;;;;;;;9.68;5.90;;;;;;;0.15;100.00;100966.39;1711619;81;21093;-70
2021/12/15 06:32:44;;;;;;;9.88;6.37;;;;;;;0.17;100.00;100973.77;1713127;82;21139;-69
2021/12/15 06:35:11;;;;;;;12.18;6.28;;;;;;;0.19;100.00;100977.27;1707066;82;21039;-69
2021/12/15 06:37:38;;;;;;;8.75;4.87;;;;;;;0.17;100.00;100980.24;1720837;81;21038;-71
2021/12/15 06:40:07;;;;;;;11.83;6.35;;;;;;;0.16;100.00;100978.91;1733297;82;21576;-72
2021/12/15 06:42:38;;;;;;;9.53;5.92;;;;;;;0.15;100.00;100983.23;1733406;82;21517;-70
2021/12/15 06:45:06;;;;;;;10.23;5.55;;;;;;;0.17;100.00;100981.97;1733483;82;21194;-72
2021/12/15 06:58:46;;;;;;;8.65;4.62;;;;;;;0.18;100.00;100980.72;1704454;82;22238;-70
2021/12/15 07:01:16;;;;;;;7.20;4.20;;;;;;;0.18;100.00;100979.42;1713682;82;21038;-70
2021/12/15 07:03:42;;;;;;;8.45;4.85;;;;;;;0.20;100.00;100977.70;1723421;82;21306;-70
2021/12/15 07:06:08;;;;;;;7.60;4.50;;;;;;;0.23;100.00;100986.37;1667487;85;21739;-71
2021/12/15 07:08:36;;;;;;;7.67;4.55;;;;;;;0.26;100.00;100989.05;1664006;85;21724;-73
2021/12/15 07:11:03;;;;;;;6.83;4.45;;;;;;;0.30;100.00;100993.42;1665409;85;21140;-72
2021/12/15 07:13:30;;;;;;;6.50;3.77;;;;;;;0.32;100.00;101003.39;1686006;84;21141;-72
2021/12/15 07:16:03;;;;;;;7.55;4.30;;;;;;;0.34;100.00;101002.57;1660940;85;21050;-72
2021/12/15 07:18:41;;;;;;;7.95;4.47;;;;;;;0.36;100.00;101008.66;1660936;85;21062;-73
2021/12/15 07:21:10;;;;;;;10.80;4.12;;;;;;;0.38;100.00;101000.92;1723539;82;21074;-73
2021/12/15 07:23:37;;;;;;;4.92;3.77;;;;;;;0.39;100.00;101000.06;1722948;82;21151;-72
2021/12/15 07:26:04;;;;;;;6.45;3.85;;;;;;;0.37;100.00;101006.97;1717954;82;21042;-72
2021/12/15 07:28:31;;;;;;;8.30;4.37;;;;;;;0.35;100.00;101013.83;1659737;85;21655;-73
2021/12/15 07:30:59;;;;;;;8.98;4.72;;;;;;;0.36;100.00;101012.98;1661579;85;21659;-72
2021/12/15 07:33:26;;;;;;;8.53;4.40;;;;;;;0.36;100.00;101012.98;1666764;85;21547;-73
2021/12/15 07:35:53;;;;;;;6.97;4.10;;;;;;;0.39;100.00;101015.61;1666742;85;21128;-73
2021/12/15 07:38:19;;;;;;;11.12;5.17;;;;;;;0.41;100.00;101017.81;1667358;85;21115;-73
2021/12/15 07:40:47;;;;;;;9.28;4.90;;;;;;;0.43;100.00;101025.20;1666886;85;22139;-73
2021/12/15 07:43:23;;;;;;;8.58;4.78;;;;;;;0.48;100.00;101020.09;1680538;84;21113;-73
2021/12/15 07:45:50;;;;;;;7.30;4.70;;;;;;;0.43;100.00;101021.73;1685341;84;21042;-73
2021/12/15 07:48:16;;;;;;;8.98;4.58;;;;;;;0.43;100.00;101026.49;1663794;85;22115;-73
2021/12/15 07:50:45;;;;;;;7.83;4.90;;;;;;;0.40;100.00;101032.92;1722076;82;22263;-72
2021/12/15 07:53:14;;;;;;;7.55;4.72;;;;;;;0.37;100.00;101041.52;1724298;82;21079;-72
2021/12/15 07:55:41;;;;;;;9.38;4.92;;;;;;;0.38;100.00;101050.16;1722394;82;21287;-72
2021/12/15 07:58:09;;;;;;;9.30;5.20;;;;;;;0.33;100.00;101046.61;1661732;85;21106;-73
2021/12/15 08:00:39;;;;;;;9.58;5.20;;;;;;;0.35;100.00;101052.70;1679233;84;21541;-73
2021/12/15 08:03:06;;;;;;;7.97;5.85;;;;;;;0.35;100.00;101060.05;1727597;82;21054;-72
2021/12/15 08:05:33;;;;;;;7.72;4.92;;;;;;;0.36;100.00;101060.91;1718132;82;21034;-73
2021/12/15 08:08:00;;;;;;;8.80;5.90;;;;;;;0.37;100.00;101053.61;1666844;85;22318;-73
2021/12/15 08:10:27;;;;;;;10.55;5.60;;;;;;;0.36;100.00;101059.19;1667701;86;21043;-72
2021/12/15 08:12:53;;;;;;;6.87;5.20;;;;;;;0.36;100.00;101058.32;1667430;85;21125;-72
2021/12/15 08:15:20;;;;;;;7.72;5.53;;;;;;;0.37;100.00;101060.09;1724725;82;21515;-72
2021/12/15 08:17:51;;;;;;;8.10;5.45;;;;;;;0.35;100.00;101061.34;1724253;82;21040;-71
2021/12/15 08:20:19;;;;;;;12.13;5.62;;;;;;;0.36;100.00;101060.48;1728065;82;20995;-73
2021/12/15 08:22:46;;;;;;;6.58;4.28;;;;;;;0.41;100.00;101064.46;1724999;82;21031;-73
2021/12/15 08:25:14;;;;;;;8.23;5.45;;;;;;;0.43;100.00;101064.07;1726491;82;21307;-73
2021/12/15 08:27:42;;;;;;;7.72;5.35;;;;;;;0.49;100.00;101064.20;1724174;82;21324;-73
2021/12/15 08:30:19;;;;;;;8.53;5.22;;;;;;;0.52;100.00;101066.84;1714115;82;21073;-72
2021/12/15 08:32:42;;;;;;;7.60;5.30;;;;;;;0.56;100.00;101060.87;1712246;82;21102;-74
2021/12/15 08:35:09;;;;;;;8.05;5.03;;;;;;;0.60;100.00;101056.20;1719507;82;21624;-73
2021/12/15 08:37:36;;;;;;;7.50;4.50;;;;;;;0.65;100.00;101056.72;1724865;82;21176;-72
2021/12/15 08:40:03;;;;;;;6.92;4.42;;;;;;;0.65;100.00;101051.10;1719343;82;21058;-73
2021/12/15 08:42:30;;;;;;;6.90;4.45;;;;;;;0.64;100.00;101050.63;1723949;82;21184;-71
2021/12/15 08:44:57;;;;;;;7.40;4.78;;;;;;;0.67;100.00;101056.30;1671412;85;21026;-74
2021/12/15 08:47:24;;;;;;;5.97;3.95;;;;;;;0.71;100.00;101060.27;1681987;84;21580;-74
2021/12/15 08:49:53;;;;;;;4.50;3.42;;;;;;;0.70;100.00;101053.34;1661987;85;21188;-72
2021/12/15 08:52:21;;;;;;;5.65;3.50;;;;;;;0.73;100.00;101048.64;1672250;85;21054;-72
2021/12/15 08:54:48;;;;;;;6.47;3.45;;;;;;;0.77;100.00;101049.15;1694447;84;21077;-73
2021/12/15 08:57:15;;;;;;;5.58;3.72;;;;;;;0.77;100.00;101051.74;1666386;85;21099;-74
2021/12/15 08:59:42;;;;;;;6.67;3.25;;;;;;;0.80;100.00;101051.36;1688975;84;21081;-74
2021/12/15 09:02:09;;;;;;;4.35;3.10;;;;;;;0.78;100.00;101050.87;1693009;84;21131;-73
2021/12/15 09:04:36;;;;;;;6.10;3.37;;;;;;;0.75;100.00;101056.89;1692389;84;21643;-73
2021/12/15 09:07:04;;;;;;;4.83;3.35;;;;;;;0.73;100.00;101053.83;1693133;84;21069;-73
2021/12/15 09:09:32;;;;;;;5.72;3.52;;;;;;;0.68;100.00;101058.06;1685306;84;21119;-72
2021/12/15 09:11:59;;;;;;;4.30;3.50;;;;;;;0.65;100.00;101050.23;1676436;85;21524;-73
2021/12/15 09:14:26;;;;;;;5.95;3.60;;;;;;;0.65;100.00;101039.44;1665236;86;21148;-73
2021/12/15 09:16:56;;;;;;;5.17;3.52;;;;;;;0.67;100.00;101041.64;1672972;84;21438;-74
2021/12/15 09:19:23;;;;;;;5.10;3.25;;;;;;;0.72;100.00;101041.72;1669151;84;21042;-72
2021/12/15 09:21:52;;;;;;;4.42;3.20;;;;;;;0.72;100.00;101036.53;1673492;85;21073;-73
2021/12/15 09:24:19;;;;;;;4.62;2.92;;;;;;;0.74;100.00;101033.12;1665552;86;21065;-73
2021/12/15 09:26:46;;;;;;;4.22;3.00;;;;;;;0.76;100.00;101027.94;1677661;85;21608;-73
2021/12/15 09:29:12;;;;;;;6.45;3.12;;;;;;;0.76;100.00;101022.75;1665797;86;21604;-74
2021/12/15 09:31:40;;;;;;;6.28;3.10;;;;;;;0.83;100.00;101028.52;1677592;85;21127;-73
2021/12/15 09:34:08;;;;;;;4.17;2.42;;;;;;;0.85;100.00;101026.80;1668787;84;21096;-73
2021/12/15 09:36:35;;;;;;;3.52;2.45;;;;;;;0.86;100.00;101025.97;1693203;84;21093;-74
2021/12/15 09:39:09;;;;;;;4.97;2.72;;;;;;;0.93;100.00;101025.22;1693740;83;21337;-73
2021/12/15 09:41:37;;;;;;;4.25;2.52;;;;;;;0.94;100.00;101024.36;1692747;84;21077;-72
2021/12/15 09:44:09;;;;;;;3.90;2.40;;;;;;;0.97;100.00;101030.91;1668362;84;21092;-72
2021/12/15 09:47:38;;;;;;;3.08;2.02;;;;;;;1.02;100.00;101033.59;1664721;86;21109;-74
2021/12/15 10:02:42;;;;;;;2.83;2.20;;;;;;;0.95;100.00;101024.83;1691190;84;21013;-72
2021/12/15 10:10:48;;;;;;;4.85;2.12;;;;;;;0.85;100.00;101026.80;1654763;85;21108;-71
2021/12/15 10:19:19;;;;;;;3.87;2.33;;;;;;;0.88;100.00;101010.02;1674180;84;21112;-74
2021/12/15 10:23:01;;;;;;;2.58;2.08;;;;;;;0.89;100.00;101011.75;1676606;84;21427;-73
2021/12/15 10:25:19;;;;;;;3.47;2.15;;;;;;;0.93;100.00;101009.66;1627077;84;21108;-72
2021/12/15 10:28:03;;;;;;;4.42;2.37;;;;;;;0.98;100.00;100997.63;1669491;84;21061;-71
2021/12/15 10:30:41;;;;;;;8.38;2.47;;;;;;;0.96;100.00;101000.62;1679136;84;21229;-72
2021/12/15 10:33:21;;;;;;;4.62;2.80;;;;;;;0.90;100.00;100998.34;1688428;84;21175;-71
2021/12/15 10:36:03;;;;;;;4.12;2.80;;;;;;;0.87;100.00;100993.98;1669689;84;21124;-71
2021/12/15 10:38:38;;;;;;;3.92;2.62;;;;;;;0.78;100.00;100996.43;1673249;84;21135;-72
2021/12/15 10:41:23;;;;;;;6.35;3.50;;;;;;;0.73;100.00;100996.78;1689880;84;21092;-71
2021/12/15 10:44:00;;;;;;;5.83;3.00;;;;;;;0.72;100.00;100996.34;1662284;86;21116;-71
2021/12/15 10:46:35;;;;;;;9.48;3.33;;;;;;;0.71;100.00;100994.58;1669819;84;21157;-72
2021/12/15 10:49:12;;;;;;;3.33;2.50;;;;;;;0.68;100.00;100986.77;1662171;86;21539;-72
2021/12/15 10:51:47;;;;;;;5.20;3.72;;;;;;;0.65;100.00;100991.48;1689985;84;21191;-73
2021/12/15 10:54:34;;;;;;;4.60;2.77;;;;;;;0.62;100.00;100991.41;1690091;84;21076;-72
2021/12/15 10:57:06;;;;;;;5.50;2.90;;;;;;;0.54;100.00;100979.62;1710345;83;21206;-72
2021/12/15 10:59:40;;;;;;;5.45;3.58;;;;;;;0.58;100.00;100985.31;1689122;84;21143;-73
2021/12/15 11:02:24;;;;;;;7.30;3.20;;;;;;;0.55;100.00;100983.08;1675247;84;21142;-71
2021/12/15 11:04:55;;;;;;;5.00;2.67;;;;;;;0.51;100.00;100987.35;1715300;83;21763;-73
2021/12/15 11:07:41;;;;;;;3.90;2.50;;;;;;;0.51;100.00;100984.76;1714817;83;21135;-72
2021/12/15 11:10:30;;;;;;;6.47;2.85;;;;;;;0.49;100.00;100987.74;1696877;83;21665;-71
2021/12/15 11:13:04;;;;;;;3.22;2.27;;;;;;;0.45;100.00;100987.23;1710818;83;21150;-70
2021/12/15 11:15:40;;;;;;;3.65;2.67;;;;;;;0.38;100.00;100985.38;1699324;83;21143;-71
2021/12/15 11:18:17;;;;;;;5.12;2.92;;;;;;;0.31;100.00;100984.82;1670651;84;21075;-70
2021/12/15 11:21:03;;;;;;;3.58;2.70;;;;;;;0.28;100.00;100987.36;1689158;84;21122;-70
2021/12/15 11:23:31;;;;;;;9.08;5.42;;;;;;;0.28;100.00;100986.07;1664288;85;21082;-71
2021/12/15 11:26:08;;;;;;;4.92;2.70;;;;;;;0.22;100.00;100988.11;1689960;84;21085;-73
2021/12/15 11:28:49;;;;;;;5.25;2.42;;;;;;;0.27;100.00;100986.89;1675194;84;21039;-70
2021/12/15 11:31:25;;;;;;;10.15;6.42;;;;;;;0.26;100.00;100992.94;1690713;84;21118;-70
2021/12/15 11:34:00;;;;;;;4.25;2.52;;;;;;;0.23;100.00;100995.45;1689257;84;22285;-70
2021/12/15 11:36:42;;;;;;;5.53;3.42;;;;;;;0.30;100.00;100992.13;1673989;84;21724;-71
2021/12/15 11:39:10;;;;;;;3.25;2.42;;;;;;;0.40;100.00;100987.58;1676637;84;22259;-70
2021/12/15 11:41:47;;;;;;;3.92;2.60;;;;;;;0.39;100.00;100987.11;1697150;83;20982;-72
2021/12/15 11:44:18;;;;;;;3.15;2.40;;;;;;;0.44;100.00;100994.97;1674622;84;21115;-72
2021/12/15 11:46:47;;;;;;;;;;;;;;;0.41;100.00;100987.62;1687581;84;21073;-72
2021/12/15 11:49:33;;;;;;;3.77;2.47;;;;;;;0.40;100.00;100988.44;1703706;83;21080;-73
2021/12/15 11:52:08;;;;;;;3.85;2.45;;;;;;;0.38;100.00;100986.67;1706254;83;21815;-70
2021/12/15 11:54:45;;;;;;;5.92;3.62;;;;;;;0.34;100.00;100988.75;1685839;84;21015;-72
2021/12/15 11:57:24;;;;;;;3.87;2.55;;;;;;;0.32;100.00;100986.55;1685376;84;21095;-72
2021/12/15 11:59:55;;;;;;;3.67;2.70;;;;;;;0.30;100.00;100985.64;1701311;83;21058;-71
2021/12/15 12:02:30;;;;;;;;;;;;;;;0.24;100.00;100988.14;1659138;86;21079;-73
2021/12/15 12:05:00;;;;;;;2.85;2.10;;;;;;;0.19;100.00;100986.33;1672514;85;21155;-71
2021/12/15 12:07:31;;;;;;;6.08;3.50;;;;;;;0.09;100.00;100975.76;1672417;84;21128;-71
2021/12/15 12:10:21;;;;;;;3.00;2.22;;;;;;;0.17;100.00;100990.61;1662347;86;21125;-73
2021/12/15 12:12:58;;;;;;;3.50;2.35;;;;;;;0.18;100.00;100993.67;1687880;83;21013;-71
2021/12/15 12:15:22;;;;;;;4.80;2.77;;;;;;;0.18;100.00;100994.96;1714340;83;21550;-72
2021/12/15 12:17:50;;;;;;;;;;;;;;;0.17;100.00;100997.08;1705198;83;21130;-71
2021/12/15 12:20:24;;;;;;;4.12;2.40;;;;;;;0.22;100.00;100997.59;1667907;85;20178;-72
2021/12/15 12:22:53;;;;;;;3.70;2.75;;;;;;;0.16;100.00;100995.34;1685633;84;21611;-70
2021/12/15 12:25:27;;;;;;;3.92;2.20;;;;;;;0.13;100.00;100997.00;1690659;84;21121;-69
2021/12/15 12:27:55;;;;;;;3.37;2.10;;;;;;;0.16;100.00;100995.34;1676484;84;21662;-71
2021/12/15 12:30:38;;;;;;;4.80;3.08;;;;;;;0.07;100.00;101000.35;1676151;84;21800;-71
2021/12/15 12:33:08;;;;;;;4.50;2.62;;;;;;;0.03;100.00;101006.31;1675152;84;21092;-72
2021/12/15 12:35:42;;;;;;;9.18;3.10;;;;;;;0.04;100.00;101005.45;1670008;84;21064;-71
2021/12/15 12:38:15;;;;;;;5.37;3.00;;;;;;;0.05;100.00;101012.39;1679555;84;21542;-73